sensor_id;sensor_type;location;lat;lon;timestamp;P1;durP1;ratioP1;P2;durP2;ratioP2
69325;SDS011;56471;53.508;49.252;2023-07-20T00:00:49;2.85;;;1.75;;
69325;SDS011;56471;53.508;49.252;2023-07-20T00:03:18;2.05;;;1.83;;
69325;SDS011;56471;53.508;49.252;2023-07-20T00:05:48;2.13;;;1.60;;
69325;SDS011;56471;53.508;49.252;2023-07-20T00:08:14;1.70;;;1.60;;
69325;SDS011;56471;53.508;49.252;2023-07-20T00:10:41;2.58;;;1.67;;
69325;SDS011;56471;53.508;49.252;2023-07-20T00:13:07;2.60;;;1.60;;
69325;SDS011;56471;53.508;49.252;2023-07-20T00:15:33;1.70;;;1.60;;
69325;SDS011;56471;53.508;49.252;2023-07-20T00:17:58;1.70;;;1.60;;
69325;SDS011;56471;53.508;49.252;2023-07-20T00:20:24;3.92;;;1.83;;
69325;SDS011;56471;53.508;49.252;2023-07-20T00:22:50;1.70;;;1.60;;
69325;SDS011;56471;53.508;49.252;2023-07-20T00:25:17;1.48;;;1.38;;
69325;SDS011;56471;53.508;49.252;2023-07-20T00:27:43;2.55;;;1.63;;
69325;SDS011;56471;53.508;49.252;2023-07-20T00:30:09;3.50;;;1.75;;
69325;SDS011;56471;53.508;49.252;2023-07-20T00:32:35;1.83;;;1.50;;
69325;SDS011;56471;53.508;49.252;2023-07-20T00:35:00;2.53;;;1.67;;
69325;SDS011;56471;53.508;49.252;2023-07-20T00:37:26;1.60;;;1.50;;
69325;SDS011;56471;53.508;49.252;2023-07-20T00:39:52;1.73;;;1.50;;
69325;SDS011;56471;53.508;49.252;2023-07-20T00:42:18;3.00;;;1.60;;
69325;SDS011;56471;53.508;49.252;2023-07-20T00:44:44;1.63;;;1.50;;
69325;SDS011;56471;53.508;49.252;2023-07-20T00:47:09;2.28;;;1.70;;
69325;SDS011;56471;53.508;49.252;2023-07-20T00:49:35;3.47;;;1.50;;
69325;SDS011;56471;53.508;49.252;2023-07-20T00:52:02;1.65;;;1.50;;
69325;SDS011;56471;53.508;49.252;2023-07-20T00:54:30;2.05;;;1.50;;
69325;SDS011;56471;53.508;49.252;2023-07-20T00:56:56;1.65;;;1.50;;
69325;SDS011;56471;53.508;49.252;2023-07-20T00:59:23;1.60;;;1.50;;
69325;SDS011;56471;53.508;49.252;2023-07-20T01:01:49;1.95;;;1.48;;
69325;SDS011;56471;53.508;49.252;2023-07-20T01:04:14;2.00;;;1.50;;
69325;SDS011;56471;53.508;49.252;2023-07-20T01:12:27;2.03;;;1.30;;
69325;SDS011;56471;53.508;49.252;2023-07-20T01:15:00;2.42;;;1.35;;
69325;SDS011;56471;53.508;49.252;2023-07-20T01:17:26;1.60;;;1.38;;
69325;SDS011;56471;53.508;49.252;2023-07-20T01:19:52;2.47;;;1.40;;
69325;SDS011;56471;53.508;49.252;2023-07-20T01:31:27;2.30;;;1.50;;
69325;SDS011;56471;53.508;49.252;2023-07-20T01:33:36;2.60;;;1.52;;
69325;SDS011;56471;53.508;49.252;2023-07-20T01:36:03;3.80;;;1.67;;
69325;SDS011;56471;53.508;49.252;2023-07-20T01:38:30;1.60;;;1.50;;
69325;SDS011;56471;53.508;49.252;2023-07-20T01:40:56;1.88;;;1.40;;
69325;SDS011;56471;53.508;49.252;2023-07-20T01:43:23;4.03;;;1.65;;
69325;SDS011;56471;53.508;49.252;2023-07-20T01:45:48;2.75;;;1.58;;
69325;SDS011;56471;53.508;49.252;2023-07-20T01:48:14;2.45;;;1.35;;
69325;SDS011;56471;53.508;49.252;2023-07-20T01:50:40;2.42;;;1.40;;
69325;SDS011;56471;53.508;49.252;2023-07-20T01:53:05;2.22;;;1.48;;
69325;SDS011;56471;53.508;49.252;2023-07-20T01:55:31;1.88;;;1.30;;
69325;SDS011;56471;53.508;49.252;2023-07-20T01:57:56;1.50;;;1.40;;
69325;SDS011;56471;53.508;49.252;2023-07-20T02:00:24;4.05;;;1.67;;
69325;SDS011;56471;53.508;49.252;2023-07-20T02:02:50;2.40;;;1.60;;
69325;SDS011;56471;53.508;49.252;2023-07-20T02:05:16;2.15;;;1.50;;
69325;SDS011;56471;53.508;49.252;2023-07-20T02:07:42;1.92;;;1.52;;
69325;SDS011;56471;53.508;49.252;2023-07-20T02:10:08;2.40;;;1.40;;
69325;SDS011;56471;53.508;49.252;2023-07-20T02:12:34;2.42;;;1.42;;
69325;SDS011;56471;53.508;49.252;2023-07-20T02:15:01;2.33;;;1.33;;
69325;SDS011;56471;53.508;49.252;2023-07-20T02:17:27;1.60;;;1.50;;
69325;SDS011;56471;53.508;49.252;2023-07-20T02:19:53;1.50;;;1.40;;
69325;SDS011;56471;53.508;49.252;2023-07-20T02:22:20;2.08;;;1.52;;
69325;SDS011;56471;53.508;49.252;2023-07-20T02:24:46;1.60;;;1.50;;
69325;SDS011;56471;53.508;49.252;2023-07-20T02:27:12;1.70;;;1.50;;
69325;SDS011;56471;53.508;49.252;2023-07-20T02:29:38;2.63;;;1.58;;
69325;SDS011;56471;53.508;49.252;2023-07-20T02:32:05;2.17;;;1.60;;
69325;SDS011;56471;53.508;49.252;2023-07-20T02:34:31;3.42;;;1.50;;
69325;SDS011;56471;53.508;49.252;2023-07-20T02:36:57;1.58;;;1.48;;
69325;SDS011;56471;53.508;49.252;2023-07-20T02:39:24;2.13;;;1.50;;
69325;SDS011;56471;53.508;49.252;2023-07-20T02:41:49;1.58;;;1.42;;
69325;SDS011;56471;53.508;49.252;2023-07-20T02:44:15;2.63;;;1.55;;
69325;SDS011;56471;53.508;49.252;2023-07-20T02:46:41;1.85;;;1.60;;
69325;SDS011;56471;53.508;49.252;2023-07-20T02:49:06;1.63;;;1.30;;
69325;SDS011;56471;53.508;49.252;2023-07-20T02:51:32;1.67;;;1.58;;
69325;SDS011;56471;53.508;49.252;2023-07-20T02:53:58;2.15;;;1.52;;
69325;SDS011;56471;53.508;49.252;2023-07-20T02:56:24;1.85;;;1.70;;
69325;SDS011;56471;53.508;49.252;2023-07-20T02:58:49;1.63;;;1.50;;
69325;SDS011;56471;53.508;49.252;2023-07-20T03:01:15;2.40;;;1.50;;
69325;SDS011;56471;53.508;49.252;2023-07-20T03:03:44;4.35;;;1.70;;
69325;SDS011;56471;53.508;49.252;2023-07-20T03:06:15;1.98;;;1.30;;
69325;SDS011;56471;53.508;49.252;2023-07-20T03:08:42;1.92;;;1.40;;
69325;SDS011;56471;53.508;49.252;2023-07-20T03:11:13;6.78;;;1.90;;
69325;SDS011;56471;53.508;49.252;2023-07-20T03:13:40;2.65;;;1.80;;
69325;SDS011;56471;53.508;49.252;2023-07-20T03:16:07;2.33;;;1.67;;
69325;SDS011;56471;53.508;49.252;2023-07-20T03:18:36;1.65;;;1.52;;
69325;SDS011;56471;53.508;49.252;2023-07-20T03:21:03;1.70;;;1.60;;
69325;SDS011;56471;53.508;49.252;2023-07-20T03:23:30;2.10;;;1.50;;
69325;SDS011;56471;53.508;49.252;2023-07-20T03:25:55;2.00;;;1.65;;
69325;SDS011;56471;53.508;49.252;2023-07-20T03:28:21;3.30;;;1.90;;
69325;SDS011;56471;53.508;49.252;2023-07-20T03:30:52;2.55;;;1.83;;
69325;SDS011;56471;53.508;49.252;2023-07-20T03:33:18;3.33;;;1.88;;
69325;SDS011;56471;53.508;49.252;2023-07-20T03:35:44;2.50;;;1.73;;
69325;SDS011;56471;53.508;49.252;2023-07-20T03:38:09;1.83;;;1.67;;
69325;SDS011;56471;53.508;49.252;2023-07-20T03:40:35;3.67;;;2.17;;
69325;SDS011;56471;53.508;49.252;2023-07-20T03:43:00;3.80;;;2.00;;
69325;SDS011;56471;53.508;49.252;2023-07-20T03:45:27;3.53;;;2.20;;
69325;SDS011;56471;53.508;49.252;2023-07-20T03:47:52;2.35;;;1.92;;
69325;SDS011;56471;53.508;49.252;2023-07-20T03:50:18;2.40;;;2.17;;
69325;SDS011;56471;53.508;49.252;2023-07-20T03:52:43;3.30;;;2.30;;
69325;SDS011;56471;53.508;49.252;2023-07-20T03:55:09;2.90;;;2.03;;
69325;SDS011;56471;53.508;49.252;2023-07-20T03:57:35;3.22;;;2.50;;
69325;SDS011;56471;53.508;49.252;2023-07-20T04:00:01;3.35;;;2.20;;
69325;SDS011;56471;53.508;49.252;2023-07-20T04:02:26;2.78;;;2.20;;
69325;SDS011;56471;53.508;49.252;2023-07-20T04:04:52;2.72;;;2.33;;
69325;SDS011;56471;53.508;49.252;2023-07-20T04:07:18;2.40;;;2.10;;
69325;SDS011;56471;53.508;49.252;2023-07-20T04:09:43;3.83;;;2.30;;
69325;SDS011;56471;53.508;49.252;2023-07-20T04:12:09;3.42;;;2.25;;
69325;SDS011;56471;53.508;49.252;2023-07-20T04:14:35;2.80;;;2.30;;
69325;SDS011;56471;53.508;49.252;2023-07-20T04:17:00;6.40;;;2.78;;
69325;SDS011;56471;53.508;49.252;2023-07-20T04:19:26;3.92;;;2.35;;
69325;SDS011;56471;53.508;49.252;2023-07-20T04:21:51;4.05;;;2.58;;
69325;SDS011;56471;53.508;49.252;2023-07-20T04:24:17;4.15;;;2.42;;
69325;SDS011;56471;53.508;49.252;2023-07-20T04:26:43;3.67;;;2.60;;
69325;SDS011;56471;53.508;49.252;2023-07-20T04:29:08;4.68;;;2.53;;
69325;SDS011;56471;53.508;49.252;2023-07-20T04:31:34;4.78;;;2.72;;
69325;SDS011;56471;53.508;49.252;2023-07-20T04:34:00;3.67;;;2.70;;
69325;SDS011;56471;53.508;49.252;2023-07-20T04:36:26;2.83;;;2.42;;
69325;SDS011;56471;53.508;49.252;2023-07-20T04:38:52;3.22;;;2.70;;
69325;SDS011;56471;53.508;49.252;2023-07-20T04:41:17;5.25;;;2.70;;
69325;SDS011;56471;53.508;49.252;2023-07-20T04:43:43;5.47;;;2.88;;
69325;SDS011;56471;53.508;49.252;2023-07-20T04:46:09;4.15;;;2.60;;
69325;SDS011;56471;53.508;49.252;2023-07-20T04:48:35;4.13;;;2.72;;
69325;SDS011;56471;53.508;49.252;2023-07-20T04:51:02;4.50;;;3.13;;
69325;SDS011;56471;53.508;49.252;2023-07-20T04:53:28;4.57;;;2.72;;
69325;SDS011;56471;53.508;49.252;2023-07-20T04:55:54;4.15;;;3.00;;
69325;SDS011;56471;53.508;49.252;2023-07-20T04:58:20;3.90;;;3.10;;
69325;SDS011;56471;53.508;49.252;2023-07-20T05:00:48;4.18;;;3.05;;
69325;SDS011;56471;53.508;49.252;2023-07-20T05:03:14;7.82;;;3.40;;
69325;SDS011;56471;53.508;49.252;2023-07-20T05:05:40;5.50;;;3.47;;
69325;SDS011;56471;53.508;49.252;2023-07-20T05:08:05;4.90;;;3.35;;
69325;SDS011;56471;53.508;49.252;2023-07-20T05:10:31;5.30;;;3.22;;
69325;SDS011;56471;53.508;49.252;2023-07-20T05:12:57;4.20;;;3.22;;
69325;SDS011;56471;53.508;49.252;2023-07-20T05:15:24;5.80;;;3.30;;
69325;SDS011;56471;53.508;49.252;2023-07-20T05:17:49;5.50;;;3.10;;
69325;SDS011;56471;53.508;49.252;2023-07-20T05:20:15;5.47;;;3.50;;
69325;SDS011;56471;53.508;49.252;2023-07-20T05:22:41;5.60;;;3.45;;
69325;SDS011;56471;53.508;49.252;2023-07-20T05:25:08;5.30;;;3.70;;
69325;SDS011;56471;53.508;49.252;2023-07-20T05:27:38;5.18;;;3.40;;
69325;SDS011;56471;53.508;49.252;2023-07-20T05:30:05;5.07;;;3.25;;
69325;SDS011;56471;53.508;49.252;2023-07-20T05:32:34;5.57;;;3.30;;
69325;SDS011;56471;53.508;49.252;2023-07-20T05:35:00;4.82;;;3.60;;
69325;SDS011;56471;53.508;49.252;2023-07-20T05:37:26;5.57;;;3.63;;
69325;SDS011;56471;53.508;49.252;2023-07-20T05:39:52;6.75;;;3.42;;
69325;SDS011;56471;53.508;49.252;2023-07-20T05:42:17;4.15;;;3.53;;
69325;SDS011;56471;53.508;49.252;2023-07-20T05:44:43;4.75;;;3.28;;
69325;SDS011;56471;53.508;49.252;2023-07-20T05:47:08;6.68;;;3.47;;
69325;SDS011;56471;53.508;49.252;2023-07-20T05:49:34;4.70;;;3.53;;
69325;SDS011;56471;53.508;49.252;2023-07-20T05:52:00;3.90;;;3.08;;
69325;SDS011;56471;53.508;49.252;2023-07-20T05:54:26;4.32;;;2.88;;
69325;SDS011;56471;53.508;49.252;2023-07-20T05:56:52;4.20;;;3.20;;
69325;SDS011;56471;53.508;49.252;2023-07-20T05:59:18;4.95;;;3.45;;
69325;SDS011;56471;53.508;49.252;2023-07-20T06:01:48;4.55;;;3.30;;
69325;SDS011;56471;53.508;49.252;2023-07-20T06:04:14;5.07;;;3.10;;
69325;SDS011;56471;53.508;49.252;2023-07-20T06:06:42;3.88;;;3.10;;
69325;SDS011;56471;53.508;49.252;2023-07-20T06:09:07;3.90;;;3.10;;
69325;SDS011;56471;53.508;49.252;2023-07-20T06:11:37;7.35;;;3.20;;
69325;SDS011;56471;53.508;49.252;2023-07-20T06:14:03;3.90;;;2.88;;
69325;SDS011;56471;53.508;49.252;2023-07-20T06:16:29;4.15;;;2.80;;
69325;SDS011;56471;53.508;49.252;2023-07-20T06:18:55;4.07;;;2.97;;
69325;SDS011;56471;53.508;49.252;2023-07-20T06:21:20;5.45;;;2.80;;
69325;SDS011;56471;53.508;49.252;2023-07-20T06:23:46;4.30;;;3.05;;
69325;SDS011;56471;53.508;49.252;2023-07-20T06:26:12;4.53;;;3.03;;
69325;SDS011;56471;53.508;49.252;2023-07-20T06:28:37;4.30;;;2.90;;
69325;SDS011;56471;53.508;49.252;2023-07-20T06:31:03;5.28;;;3.10;;
69325;SDS011;56471;53.508;49.252;2023-07-20T06:33:29;5.30;;;2.90;;
69325;SDS011;56471;53.508;49.252;2023-07-20T06:35:55;3.35;;;2.33;;
69325;SDS011;56471;53.508;49.252;2023-07-20T06:38:22;3.20;;;2.63;;
69325;SDS011;56471;53.508;49.252;2023-07-20T06:40:51;4.13;;;2.38;;
69325;SDS011;56471;53.508;49.252;2023-07-20T06:43:17;3.20;;;2.30;;
69325;SDS011;56471;53.508;49.252;2023-07-20T06:45:43;3.28;;;2.30;;
69325;SDS011;56471;53.508;49.252;2023-07-20T06:48:09;3.88;;;2.35;;
69325;SDS011;56471;53.508;49.252;2023-07-20T06:50:34;4.22;;;2.28;;
69325;SDS011;56471;53.508;49.252;2023-07-20T06:53:00;2.10;;;1.85;;
69325;SDS011;56471;53.508;49.252;2023-07-20T06:55:29;2.63;;;1.80;;
69325;SDS011;56471;53.508;49.252;2023-07-20T06:57:54;3.08;;;2.08;;
69325;SDS011;56471;53.508;49.252;2023-07-20T07:00:20;3.92;;;1.80;;
69325;SDS011;56471;53.508;49.252;2023-07-20T07:02:46;2.50;;;1.90;;
69325;SDS011;56471;53.508;49.252;2023-07-20T07:05:12;2.13;;;1.60;;
69325;SDS011;56471;53.508;49.252;2023-07-20T07:07:40;3.03;;;2.08;;
69325;SDS011;56471;53.508;49.252;2023-07-20T07:10:05;2.80;;;1.90;;
69325;SDS011;56471;53.508;49.252;2023-07-20T07:12:32;3.80;;;1.75;;
69325;SDS011;56471;53.508;49.252;2023-07-20T07:14:57;2.63;;;1.80;;
69325;SDS011;56471;53.508;49.252;2023-07-20T07:17:23;3.05;;;1.88;;
69325;SDS011;56471;53.508;49.252;2023-07-20T07:19:50;197.70;;;135.57;;
69325;SDS011;56471;53.508;49.252;2023-07-20T07:22:19;217.40;;;151.00;;
69325;SDS011;56471;53.508;49.252;2023-07-20T07:24:46;137.57;;;94.85;;
69325;SDS011;56471;53.508;49.252;2023-07-20T07:27:12;96.38;;;62.15;;
69325;SDS011;56471;53.508;49.252;2023-07-20T07:29:38;60.70;;;37.10;;
69325;SDS011;56471;53.508;49.252;2023-07-20T07:32:03;37.22;;;23.58;;
69325;SDS011;56471;53.508;49.252;2023-07-20T07:34:29;23.38;;;15.02;;
69325;SDS011;56471;53.508;49.252;2023-07-20T07:36:56;16.85;;;10.20;;
69325;SDS011;56471;53.508;49.252;2023-07-20T07:39:22;11.48;;;7.32;;
69325;SDS011;56471;53.508;49.252;2023-07-20T07:41:49;7.65;;;4.30;;
69325;SDS011;56471;53.508;49.252;2023-07-20T07:44:15;8.80;;;3.00;;
69325;SDS011;56471;53.508;49.252;2023-07-20T07:46:40;3.83;;;2.60;;
69325;SDS011;56471;53.508;49.252;2023-07-20T07:49:06;3.97;;;2.03;;
69325;SDS011;56471;53.508;49.252;2023-07-20T07:51:32;4.43;;;2.00;;
69325;SDS011;56471;53.508;49.252;2023-07-20T07:53:58;3.65;;;1.77;;
69325;SDS011;56471;53.508;49.252;2023-07-20T07:56:24;4.85;;;1.70;;
69325;SDS011;56471;53.508;49.252;2023-07-20T07:58:50;2.92;;;1.77;;
69325;SDS011;56471;53.508;49.252;2023-07-20T08:01:16;3.95;;;1.60;;
69325;SDS011;56471;53.508;49.252;2023-07-20T08:03:44;2.85;;;1.70;;
69325;SDS011;56471;53.508;49.252;2023-07-20T08:06:12;3.40;;;1.60;;
69325;SDS011;56471;53.508;49.252;2023-07-20T08:08:38;1.52;;;1.40;;
69325;SDS011;56471;53.508;49.252;2023-07-20T08:11:04;3.95;;;1.40;;
69325;SDS011;56471;53.508;49.252;2023-07-20T08:13:30;4.13;;;1.58;;
69325;SDS011;56471;53.508;49.252;2023-07-20T08:15:57;4.00;;;1.50;;
69325;SDS011;56471;53.508;49.252;2023-07-20T08:18:22;3.20;;;1.67;;
69325;SDS011;56471;53.508;49.252;2023-07-20T08:20:51;2.47;;;1.70;;
69325;SDS011;56471;53.508;49.252;2023-07-20T08:23:16;4.68;;;1.70;;
69325;SDS011;56471;53.508;49.252;2023-07-20T08:25:42;4.10;;;1.63;;
69325;SDS011;56471;53.508;49.252;2023-07-20T08:28:15;3.22;;;1.63;;
69325;SDS011;56471;53.508;49.252;2023-07-20T08:30:45;3.63;;;2.00;;
69325;SDS011;56471;53.508;49.252;2023-07-20T08:33:16;3.08;;;1.50;;
69325;SDS011;56471;53.508;49.252;2023-07-20T08:35:46;2.25;;;1.42;;
69325;SDS011;56471;53.508;49.252;2023-07-20T08:38:12;2.58;;;1.58;;
69325;SDS011;56471;53.508;49.252;2023-07-20T08:40:39;1.75;;;1.30;;
69325;SDS011;56471;53.508;49.252;2023-07-20T08:43:08;2.03;;;1.30;;
69325;SDS011;56471;53.508;49.252;2023-07-20T08:45:35;4.95;;;1.50;;
69325;SDS011;56471;53.508;49.252;2023-07-20T08:48:03;2.58;;;1.10;;
69325;SDS011;56471;53.508;49.252;2023-07-20T08:50:30;2.00;;;1.17;;
69325;SDS011;56471;53.508;49.252;2023-07-20T08:52:57;348.10;;;269.00;;
69325;SDS011;56471;53.508;49.252;2023-07-20T08:55:25;485.95;;;389.08;;
69325;SDS011;56471;53.508;49.252;2023-07-20T08:57:53;361.02;;;271.20;;
69325;SDS011;56471;53.508;49.252;2023-07-20T09:00:20;232.13;;;155.85;;
69325;SDS011;56471;53.508;49.252;2023-07-20T09:02:48;153.55;;;100.97;;
69325;SDS011;56471;53.508;49.252;2023-07-20T09:05:16;111.80;;;71.93;;
69325;SDS011;56471;53.508;49.252;2023-07-20T09:07:45;88.10;;;52.60;;
69325;SDS011;56471;53.508;49.252;2023-07-20T09:10:12;60.05;;;35.55;;
69325;SDS011;56471;53.508;49.252;2023-07-20T09:12:41;41.45;;;24.55;;
69325;SDS011;56471;53.508;49.252;2023-07-20T09:15:09;29.02;;;16.52;;
69325;SDS011;56471;53.508;49.252;2023-07-20T09:17:36;20.42;;;12.10;;
69325;SDS011;56471;53.508;49.252;2023-07-20T09:20:06;15.38;;;9.38;;
69325;SDS011;56471;53.508;49.252;2023-07-20T09:22:35;13.98;;;5.60;;
69325;SDS011;56471;53.508;49.252;2023-07-20T09:25:05;7.13;;;3.95;;
69325;SDS011;56471;53.508;49.252;2023-07-20T09:27:39;4.90;;;2.97;;
69325;SDS011;56471;53.508;49.252;2023-07-20T09:30:06;3.28;;;1.70;;
69325;SDS011;56471;53.508;49.252;2023-07-20T09:32:44;4.05;;;1.58;;
69325;SDS011;56471;53.508;49.252;2023-07-20T09:35:14;2.15;;;1.50;;
69325;SDS011;56471;53.508;49.252;2023-07-20T09:37:40;2.78;;;1.45;;
69325;SDS011;56471;53.508;49.252;2023-07-20T09:40:11;2.17;;;1.30;;
69325;SDS011;56471;53.508;49.252;2023-07-20T09:42:41;6.65;;;1.13;;
69325;SDS011;56471;53.508;49.252;2023-07-20T09:45:07;3.42;;;1.20;;
69325;SDS011;56471;53.508;49.252;2023-07-20T09:47:35;2.95;;;1.00;;
69325;SDS011;56471;53.508;49.252;2023-07-20T09:50:05;1.98;;;1.15;;
69325;SDS011;56471;53.508;49.252;2023-07-20T09:52:37;1.30;;;1.20;;
69325;SDS011;56471;53.508;49.252;2023-07-20T09:55:05;1.60;;;1.17;;
69325;SDS011;56471;53.508;49.252;2023-07-20T09:57:34;2.45;;;1.10;;
69325;SDS011;56471;53.508;49.252;2023-07-20T10:00:01;1.20;;;1.10;;
69325;SDS011;56471;53.508;49.252;2023-07-20T10:02:40;1.45;;;1.30;;
69325;SDS011;56471;53.508;49.252;2023-07-20T10:05:11;2.80;;;1.40;;
69325;SDS011;56471;53.508;49.252;2023-07-20T10:07:46;3.35;;;1.60;;
69325;SDS011;56471;53.508;49.252;2023-07-20T10:10:16;3.45;;;1.60;;
69325;SDS011;56471;53.508;49.252;2023-07-20T10:12:49;2.30;;;1.42;;
69325;SDS011;56471;53.508;49.252;2023-07-20T10:15:22;5.88;;;1.50;;
69325;SDS011;56471;53.508;49.252;2023-07-20T10:20:42;2.78;;;1.33;;
69325;SDS011;56471;53.508;49.252;2023-07-20T10:23:09;3.05;;;1.25;;
69325;SDS011;56471;53.508;49.252;2023-07-20T10:25:36;4.07;;;1.15;;
69325;SDS011;56471;53.508;49.252;2023-07-20T10:28:06;3.25;;;1.20;;
69325;SDS011;56471;53.508;49.252;2023-07-20T10:30:35;4.28;;;1.25;;
69325;SDS011;56471;53.508;49.252;2023-07-20T10:33:02;303.02;;;188.90;;
69325;SDS011;56471;53.508;49.252;2023-07-20T10:35:29;41.03;;;18.35;;
69325;SDS011;56471;53.508;49.252;2023-07-20T10:38:01;2.97;;;1.90;;
69325;SDS011;56471;53.508;49.252;2023-07-20T10:40:30;1.60;;;1.50;;
69325;SDS011;56471;53.508;49.252;2023-07-20T10:43:06;2.22;;;1.33;;
69325;SDS011;56471;53.508;49.252;2023-07-20T10:45:39;1.70;;;1.45;;
69325;SDS011;56471;53.508;49.252;2023-07-20T10:48:15;2.83;;;1.60;;
69325;SDS011;56471;53.508;49.252;2023-07-20T10:50:44;4.03;;;1.50;;
69325;SDS011;56471;53.508;49.252;2023-07-20T10:53:14;35.88;;;21.35;;
69325;SDS011;56471;53.508;49.252;2023-07-20T10:55:43;547.00;;;415.42;;
69325;SDS011;56471;53.508;49.252;2023-07-20T10:58:14;363.80;;;251.40;;
69325;SDS011;56471;53.508;49.252;2023-07-20T11:03:29;157.60;;;99.03;;
69325;SDS011;56471;53.508;49.252;2023-07-20T11:08:56;75.75;;;41.35;;
69325;SDS011;56471;53.508;49.252;2023-07-20T11:11:42;23.40;;;13.40;;
69325;SDS011;56471;53.508;49.252;2023-07-20T11:19:05;6.93;;;4.28;;
69325;SDS011;56471;53.508;49.252;2023-07-20T11:21:40;6.25;;;2.83;;
69325;SDS011;56471;53.508;49.252;2023-07-20T11:24:07;489.35;;;428.83;;
69325;SDS011;56471;53.508;49.252;2023-07-20T11:26:43;213.30;;;155.13;;
69325;SDS011;56471;53.508;49.252;2023-07-20T11:29:10;149.88;;;111.55;;
69325;SDS011;56471;53.508;49.252;2023-07-20T11:31:40;91.88;;;60.97;;
69325;SDS011;56471;53.508;49.252;2023-07-20T11:34:11;52.00;;;32.88;;
69325;SDS011;56471;53.508;49.252;2023-07-20T11:36:41;27.17;;;18.05;;
69325;SDS011;56471;53.508;49.252;2023-07-20T11:39:09;15.63;;;11.10;;
69325;SDS011;56471;53.508;49.252;2023-07-20T11:41:35;8.98;;;6.22;;
69325;SDS011;56471;53.508;49.252;2023-07-20T11:44:01;6.18;;;4.78;;
69325;SDS011;56471;53.508;49.252;2023-07-20T11:46:28;3.88;;;3.17;;
69325;SDS011;56471;53.508;49.252;2023-07-20T11:48:57;3.60;;;2.60;;
69325;SDS011;56471;53.508;49.252;2023-07-20T11:51:27;6.18;;;2.55;;
69325;SDS011;56471;53.508;49.252;2023-07-20T11:53:54;3.63;;;2.10;;
69325;SDS011;56471;53.508;49.252;2023-07-20T11:56:20;2.13;;;1.90;;
69325;SDS011;56471;53.508;49.252;2023-07-20T11:58:47;3.75;;;1.83;;
69325;SDS011;56471;53.508;49.252;2023-07-20T12:01:13;264.80;;;178.27;;
69325;SDS011;56471;53.508;49.252;2023-07-20T12:03:40;5.40;;;3.80;;
69325;SDS011;56471;53.508;49.252;2023-07-20T12:06:07;2.97;;;2.08;;
69325;SDS011;56471;53.508;49.252;2023-07-20T12:08:34;232.02;;;176.20;;
69325;SDS011;56471;53.508;49.252;2023-07-20T12:10:59;116.10;;;81.05;;
69325;SDS011;56471;53.508;49.252;2023-07-20T12:13:38;19.70;;;13.65;;
69325;SDS011;56471;53.508;49.252;2023-07-20T12:16:16;11.00;;;5.30;;
69325;SDS011;56471;53.508;49.252;2023-07-20T12:18:43;4.25;;;1.42;;
69325;SDS011;56471;53.508;49.252;2023-07-20T12:21:09;3.40;;;1.50;;
69325;SDS011;56471;53.508;49.252;2023-07-20T12:23:36;2.80;;;1.40;;
69325;SDS011;56471;53.508;49.252;2023-07-20T12:26:03;1.75;;;1.30;;
69325;SDS011;56471;53.508;49.252;2023-07-20T12:28:40;2.63;;;1.50;;
69325;SDS011;56471;53.508;49.252;2023-07-20T12:31:06;2.33;;;1.50;;
69325;SDS011;56471;53.508;49.252;2023-07-20T12:33:36;3.92;;;1.60;;
69325;SDS011;56471;53.508;49.252;2023-07-20T12:36:03;28.23;;;14.52;;
69325;SDS011;56471;53.508;49.252;2023-07-20T12:38:30;4.70;;;1.80;;
69325;SDS011;56471;53.508;49.252;2023-07-20T12:40:59;1.40;;;1.20;;
69325;SDS011;56471;53.508;49.252;2023-07-20T12:43:26;1.70;;;1.30;;
69325;SDS011;56471;53.508;49.252;2023-07-20T12:45:52;3.85;;;1.17;;
69325;SDS011;56471;53.508;49.252;2023-07-20T12:48:18;2.17;;;1.48;;
69325;SDS011;56471;53.508;49.252;2023-07-20T12:50:43;2.05;;;1.38;;
69325;SDS011;56471;53.508;49.252;2023-07-20T12:53:09;3.63;;;1.35;;
69325;SDS011;56471;53.508;49.252;2023-07-20T12:55:35;2.42;;;1.35;;
69325;SDS011;56471;53.508;49.252;2023-07-20T12:58:02;8.43;;;4.10;;
69325;SDS011;56471;53.508;49.252;2023-07-20T13:00:28;859.45;;;631.47;;
69325;SDS011;56471;53.508;49.252;2023-07-20T13:02:54;962.65;;;706.70;;
69325;SDS011;56471;53.508;49.252;2023-07-20T13:05:19;725.70;;;565.45;;
69325;SDS011;56471;53.508;49.252;2023-07-20T13:07:45;595.25;;;458.85;;
69325;SDS011;56471;53.508;49.252;2023-07-20T13:10:11;471.85;;;333.65;;
69325;SDS011;56471;53.508;49.252;2023-07-20T13:12:37;334.40;;;224.15;;
69325;SDS011;56471;53.508;49.252;2023-07-20T13:15:04;246.68;;;149.35;;
69325;SDS011;56471;53.508;49.252;2023-07-20T13:17:31;160.93;;;97.30;;
69325;SDS011;56471;53.508;49.252;2023-07-20T13:19:58;111.38;;;64.90;;
69325;SDS011;56471;53.508;49.252;2023-07-20T13:22:24;75.22;;;41.42;;
69325;SDS011;56471;53.508;49.252;2023-07-20T13:24:49;65.05;;;34.70;;
69325;SDS011;56471;53.508;49.252;2023-07-20T13:27:16;46.30;;;25.25;;
69325;SDS011;56471;53.508;49.252;2023-07-20T13:29:42;34.80;;;18.50;;
69325;SDS011;56471;53.508;49.252;2023-07-20T13:32:08;26.13;;;14.93;;
69325;SDS011;56471;53.508;49.252;2023-07-20T13:34:34;38.55;;;19.63;;
69325;SDS011;56471;53.508;49.252;2023-07-20T13:37:00;144.10;;;85.85;;
69325;SDS011;56471;53.508;49.252;2023-07-20T13:39:26;151.57;;;92.35;;
69325;SDS011;56471;53.508;49.252;2023-07-20T13:41:53;11.80;;;7.53;;
69325;SDS011;56471;53.508;49.252;2023-07-20T13:44:22;9.43;;;6.05;;
69325;SDS011;56471;53.508;49.252;2023-07-20T13:46:48;10.45;;;5.20;;
69325;SDS011;56471;53.508;49.252;2023-07-20T13:49:14;6.72;;;4.15;;
69325;SDS011;56471;53.508;49.252;2023-07-20T13:51:41;6.72;;;3.50;;
69325;SDS011;56471;53.508;49.252;2023-07-20T13:54:07;4.93;;;3.10;;
69325;SDS011;56471;53.508;49.252;2023-07-20T13:56:33;4.63;;;2.67;;
69325;SDS011;56471;53.508;49.252;2023-07-20T13:58:59;3.08;;;2.30;;
69325;SDS011;56471;53.508;49.252;2023-07-20T14:01:24;2.35;;;1.85;;
69325;SDS011;56471;53.508;49.252;2023-07-20T14:03:50;3.25;;;2.20;;
69325;SDS011;56471;53.508;49.252;2023-07-20T14:06:16;7.07;;;3.83;;
69325;SDS011;56471;53.508;49.252;2023-07-20T14:08:42;5.20;;;2.78;;
69325;SDS011;56471;53.508;49.252;2023-07-20T14:11:11;6.78;;;2.60;;
69325;SDS011;56471;53.508;49.252;2023-07-20T14:13:38;5.82;;;2.20;;
69325;SDS011;56471;53.508;49.252;2023-07-20T14:16:04;3.67;;;1.85;;
69325;SDS011;56471;53.508;49.252;2023-07-20T14:18:29;8.75;;;3.33;;
69325;SDS011;56471;53.508;49.252;2023-07-20T14:20:55;4.25;;;2.88;;
69325;SDS011;56471;53.508;49.252;2023-07-20T14:23:21;3.92;;;2.40;;
69325;SDS011;56471;53.508;49.252;2023-07-20T14:25:47;3.30;;;2.20;;
69325;SDS011;56471;53.508;49.252;2023-07-20T14:28:13;4.93;;;1.83;;
69325;SDS011;56471;53.508;49.252;2023-07-20T14:30:41;2.55;;;1.90;;
69325;SDS011;56471;53.508;49.252;2023-07-20T14:33:07;64.90;;;36.53;;
69325;SDS011;56471;53.508;49.252;2023-07-20T14:35:33;1497.93;;;906.85;;
69325;SDS011;56471;53.508;49.252;2023-07-20T14:37:59;1029.05;;;764.80;;
69325;SDS011;56471;53.508;49.252;2023-07-20T14:40:25;870.05;;;690.45;;
69325;SDS011;56471;53.508;49.252;2023-07-20T14:42:50;722.25;;;601.78;;
69325;SDS011;56471;53.508;49.252;2023-07-20T14:45:17;636.42;;;525.78;;
69325;SDS011;56471;53.508;49.252;2023-07-20T14:47:43;518.55;;;412.42;;
69325;SDS011;56471;53.508;49.252;2023-07-20T14:50:09;450.75;;;344.83;;
69325;SDS011;56471;53.508;49.252;2023-07-20T14:52:35;384.15;;;287.80;;